Meath Environmental Platform

Observations for Trim Market St

Time AQI Temp °C Hum % Pres Pa CO μg/m³ H₂S μg/m³ NO μg/m³ NO₂ μg/m³ O₃ μg/m³ SO₂ μg/m³ PM1 μg/m³ PM2.5 μg/m³ PM10 μg/m³
Sunday 23 August 2026
13:43 2 24.3 36 65,647 0 0 0.88 10.08 144.1 0 0 3.04 3.35
13:42 2 24.3 36 65,631 0 0 0.86 8.1 73.53 0 0 3.05 3.36
13:41 2 24.3 36 65,670 0 0 0.89 9.76 82 0 0.71 4.67 5.14
13:40 2 24.3 36 65,665 0 0 0.93 9.1 94.26 0 0 3.07 3.37
13:39 2 24.3 36 65,655 0 0 0.97 9.98 94.83 0 0.71 4.14 4.55
13:38 2 24.3 36 65,645 0 0 1.02 9.67 75.93 0 0 2.54 2.79
13:32 2 24.6 36 65,672 0 0 1.01 10.73 77.11 0 0 2.54 2.79
13:29 2 24.7 35 65,645 0 0 1.12 10.09 73.65 0 0 3.08 3.39
13:23 2 25.1 35 65,724 0 0 1.59 10.18 76.14 0 0.71 3.65 4.01
13:20 2 25.2 34 65,752 0.6 1.4 1.37 44.92 66.61 0 0.71 3.66 4.02
13:17 2 25.4 34 65,760 0 0 1.4 17.21 74.12 0 0.71 3.65 4.02
13:16 2 25.4 34 65,772 0 0 1.4 8.92 75.8 0 0 3.12 3.43
13:15 2 25.5 34 65,760 0 0 1 11.2 74.86 0 0 3.13 3.44
13:14 2 25.6 34 65,774 0 0 1.02 12.32 76.17 0 0 3.13 3.44
13:13 2 25.7 34 65,764 0 0 1.01 12.27 76.59 0 0.71 3.67 4.03
13:12 2 25.7 34 65,776 0 0 1.05 10.57 75.88 0 0 2.59 2.85
13:11 2 25.8 34 65,758 0.56 0 1.13 9.99 76.49 0 0 3.13 3.45
13:10 2 25.8 34 65,766 0 0 1.2 12.28 75.71 0 0 3.14 3.45
13:09 2 25.9 34 65,774 0.07 0 1.21 13.44 76.72 0 0.71 4.76 5.23
13:08 2 25.9 34 65,784 0 0 1.19 12.59 74.76 0 0 3.68 4.05